createdAt,value
2024-01-17T00:00:14.988Z,35.95
2024-01-17T00:02:21.564Z,36.03
2024-01-17T00:04:27.126Z,36.07
2024-01-17T00:06:32.510Z,36.12
2024-01-17T00:08:37.926Z,36.27
2024-01-17T00:10:43.629Z,36.28
2024-01-17T00:12:49.036Z,36.21
2024-01-17T00:14:54.824Z,36.25
2024-01-17T00:17:00.214Z,36.39
2024-01-17T00:19:05.911Z,36.45
2024-01-17T00:21:11.610Z,36.58
2024-01-17T00:23:17.098Z,36.42
2024-01-17T00:25:22.344Z,36.39
2024-01-17T00:27:27.772Z,36.39
2024-01-17T00:29:33.246Z,36.21
2024-01-17T00:31:38.688Z,36.22
2024-01-17T00:33:44.587Z,36.16
2024-01-17T00:35:50.202Z,36.05
2024-01-17T00:37:55.530Z,36.04
2024-01-17T00:40:01.278Z,36.02
2024-01-17T00:42:07.352Z,35.99
2024-01-17T00:44:12.826Z,36.01
2024-01-17T00:46:18.370Z,36.03
2024-01-17T00:48:24.223Z,35.99
2024-01-17T00:50:29.709Z,35.93
2024-01-17T00:52:35.188Z,35.92
2024-01-17T00:54:40.765Z,35.93
2024-01-17T00:56:46.432Z,35.94
2024-01-17T00:58:52.100Z,35.92
2024-01-17T01:00:57.636Z,36.05
2024-01-17T01:03:03.159Z,36.04
2024-01-17T01:05:08.523Z,36.06
2024-01-17T01:07:14.012Z,36.04
2024-01-17T01:09:19.674Z,36.06
2024-01-17T01:11:25.414Z,36.08
2024-01-17T01:13:30.769Z,36.19
2024-01-17T01:15:36.187Z,36.27
2024-01-17T01:17:42.005Z,36.34
2024-01-17T01:19:47.456Z,36.41
2024-01-17T01:21:52.983Z,36.51
2024-01-17T01:23:58.346Z,36.55
2024-01-17T01:26:03.790Z,36.53
2024-01-17T01:28:09.352Z,36.83
2024-01-17T01:30:15.047Z,36.78
2024-01-17T01:32:20.406Z,36.81
2024-01-17T01:34:26.188Z,36.96
2024-01-17T01:36:31.595Z,37.03
2024-01-17T01:38:37.366Z,37.16
2024-01-17T01:40:42.997Z,37.16
2024-01-17T01:42:48.380Z,37.23
2024-01-17T01:44:53.782Z,37.42
2024-01-17T01:46:59.318Z,37.55
2024-01-17T01:49:05.679Z,37.55
2024-01-17T01:51:11.349Z,37.62
2024-01-17T01:53:16.560Z,37.58
2024-01-17T01:55:21.919Z,37.52
2024-01-17T01:57:27.448Z,37.63
2024-01-17T01:59:33.088Z,37.55
2024-01-17T02:01:38.463Z,37.79
2024-01-17T02:03:44.104Z,37.85
2024-01-17T02:05:49.787Z,37.71
2024-01-17T02:07:55.154Z,37.85
2024-01-17T02:10:00.681Z,37.88
2024-01-17T02:12:06.707Z,37.79
2024-01-17T02:14:12.070Z,37.83
2024-01-17T02:16:17.622Z,37.73
2024-01-17T02:18:23.371Z,37.69
2024-01-17T02:20:28.994Z,37.78
2024-01-17T02:22:34.447Z,37.72
2024-01-17T02:24:40.111Z,37.65
2024-01-17T02:26:45.672Z,37.67
2024-01-17T02:28:51.185Z,37.78
2024-01-17T02:30:56.914Z,37.67
2024-01-17T02:33:02.923Z,37.69
2024-01-17T02:35:08.531Z,37.73
2024-01-17T02:37:14.081Z,37.61
2024-01-17T02:39:19.598Z,37.51
2024-01-17T02:41:25.296Z,37.44
2024-01-17T02:43:30.794Z,37.42
2024-01-17T02:45:36.245Z,37.33
2024-01-17T02:47:41.750Z,37.3
2024-01-17T02:49:47.258Z,37.21
2024-01-17T02:51:52.964Z,37.17
2024-01-17T02:53:58.749Z,37.09
2024-01-17T02:56:04.242Z,36.98
2024-01-17T02:58:09.694Z,36.91
2024-01-17T03:00:15.151Z,36.84
2024-01-17T03:02:20.569Z,36.81
2024-01-17T03:04:25.899Z,36.77
2024-01-17T03:06:31.181Z,36.71
2024-01-17T03:08:36.797Z,36.65
2024-01-17T03:10:42.336Z,36.68
2024-01-17T03:12:47.677Z,36.61
2024-01-17T03:14:53.041Z,36.56
2024-01-17T03:16:58.560Z,36.54
2024-01-17T03:19:04.515Z,36.6
2024-01-17T03:21:10.044Z,36.79
2024-01-17T03:23:15.605Z,36.77
2024-01-17T03:25:20.918Z,36.82
2024-01-17T03:27:26.330Z,36.78
2024-01-17T03:29:31.846Z,36.82
2024-01-17T03:31:37.356Z,36.81
2024-01-17T03:33:43.264Z,36.71
2024-01-17T03:35:49.031Z,36.75
2024-01-17T03:37:54.508Z,36.72
2024-01-17T03:40:00.051Z,36.71
2024-01-17T03:42:05.845Z,36.74
2024-01-17T03:44:11.432Z,36.67
2024-01-17T03:46:16.763Z,36.69
2024-01-17T03:48:22.687Z,36.68
2024-01-17T03:50:28.043Z,36.66
2024-01-17T03:52:33.607Z,36.73
2024-01-17T03:54:38.998Z,36.79
2024-01-17T03:56:44.648Z,36.93
2024-01-17T03:58:50.039Z,37.01
2024-01-17T04:00:55.702Z,37.04
2024-01-17T04:03:01.432Z,37.1
2024-01-17T04:05:07.202Z,37.07
2024-01-17T04:08:07.804Z,37.06
2024-01-17T04:10:13.164Z,37.04
2024-01-17T04:12:18.687Z,37
2024-01-17T04:14:23.978Z,36.96
2024-01-17T04:16:29.257Z,36.94
2024-01-17T04:18:35.140Z,37.04
2024-01-17T04:20:40.559Z,37.01
2024-01-17T04:22:45.900Z,36.95
2024-01-17T04:24:51.441Z,36.95
2024-01-17T04:26:56.916Z,36.87
2024-01-17T04:29:02.353Z,36.84
2024-01-17T04:31:07.940Z,36.78
2024-01-17T04:33:13.999Z,36.75
2024-01-17T04:35:19.530Z,36.68
2024-01-17T04:37:25.183Z,36.58
2024-01-17T04:39:30.629Z,36.56
2024-01-17T04:41:36.121Z,36.55
2024-01-17T04:43:41.443Z,36.49
2024-01-17T04:45:46.648Z,36.43
2024-01-17T04:47:52.714Z,36.44
2024-01-17T04:49:58.655Z,36.42
2024-01-17T04:52:04.275Z,36.4
2024-01-17T04:54:10.099Z,36.51
2024-01-17T04:56:16.187Z,36.46
2024-01-17T04:58:21.524Z,36.39
2024-01-17T05:00:26.918Z,36.44
2024-01-17T05:02:32.283Z,36.48
2024-01-17T05:04:37.594Z,36.42
2024-01-17T05:06:43.208Z,35.74
2024-01-17T05:08:49.379Z,35.39
2024-01-17T05:10:54.945Z,35.02
2024-01-17T05:13:00.230Z,34.66
2024-01-17T05:15:06.168Z,33.98
2024-01-17T05:17:11.833Z,33.91
2024-01-17T05:19:21.037Z,33.71
2024-01-17T05:21:26.541Z,34.05
2024-01-17T05:23:32.181Z,33.8
2024-01-17T05:25:37.632Z,33.8
2024-01-17T05:27:43.063Z,33.48
2024-01-17T05:29:48.592Z,33.39
2024-01-17T05:31:54.139Z,33.07
2024-01-17T05:33:59.996Z,32.87
2024-01-17T05:36:05.651Z,32.58
2024-01-17T05:38:11.227Z,32.65
2024-01-17T05:40:16.652Z,32.88
2024-01-17T05:42:22.110Z,32.38
2024-01-17T05:44:27.563Z,32.16
2024-01-17T05:46:32.997Z,32.35
2024-01-17T05:48:39.001Z,32.15
2024-01-17T05:50:44.619Z,32.19
2024-01-17T05:52:49.868Z,32.12
2024-01-17T05:54:55.360Z,31.82
2024-01-17T05:57:00.918Z,31.61
2024-01-17T05:59:06.189Z,31.59
2024-01-17T06:01:11.653Z,31.09
2024-01-17T06:03:17.277Z,31.16
2024-01-17T06:05:22.779Z,31.11
2024-01-17T06:07:28.422Z,31.05
2024-01-17T06:09:33.669Z,31.17
2024-01-17T06:11:38.988Z,30.55
2024-01-17T06:13:44.434Z,30.66
2024-01-17T06:15:49.925Z,30.58
2024-01-17T06:17:55.545Z,30.18
2024-01-17T06:20:00.973Z,30.31
2024-01-17T06:22:06.509Z,30.12
2024-01-17T06:24:12.276Z,30.37
2024-01-17T06:26:17.684Z,29.92
2024-01-17T06:28:22.911Z,30.07
2024-01-17T06:30:28.701Z,30.04
2024-01-17T06:32:34.771Z,29.09
2024-01-17T06:34:41.580Z,29.48
2024-01-17T06:36:46.987Z,29.72
2024-01-17T06:38:52.522Z,29.63
2024-01-17T06:40:57.907Z,29.79
2024-01-17T06:43:03.299Z,29.79
2024-01-17T06:45:08.716Z,29.88
2024-01-17T06:47:14.025Z,29.68
2024-01-17T06:49:19.627Z,29.69
2024-01-17T06:51:24.953Z,30.06
2024-01-17T06:53:30.458Z,29.6
2024-01-17T06:55:35.854Z,29.44
2024-01-17T06:57:41.435Z,29.33
2024-01-17T06:59:47.100Z,26.79
2024-01-17T07:01:52.547Z,29.32
2024-01-17T07:03:57.931Z,29.35
2024-01-17T07:06:03.702Z,29.52
2024-01-17T07:08:09.213Z,29.84
2024-01-17T07:10:14.703Z,29.88
2024-01-17T07:12:20.484Z,30.13
2024-01-17T07:14:25.881Z,29.79
2024-01-17T07:16:31.223Z,30.13
2024-01-17T07:18:37.257Z,29.93
2024-01-17T07:20:42.885Z,30.53
2024-01-17T07:22:48.336Z,30.34
2024-01-17T07:24:54.055Z,30.33
2024-01-17T07:26:59.590Z,30.81
2024-01-17T07:29:05.184Z,30.35
2024-01-17T07:31:10.468Z,30.14
2024-01-17T07:33:16.234Z,30.53
2024-01-17T07:35:21.707Z,30.28
2024-01-17T07:37:27.243Z,30.29
2024-01-17T07:39:32.905Z,30.3
2024-01-17T07:41:38.550Z,30.26
2024-01-17T07:43:44.095Z,30.18
2024-01-17T07:45:49.419Z,30.12
2024-01-17T07:47:55.190Z,30
2024-01-17T07:50:06.136Z,29.92
2024-01-17T07:52:11.465Z,29.82
2024-01-17T07:54:16.866Z,29.75
2024-01-17T07:56:22.317Z,29.71
2024-01-17T07:58:27.603Z,29.67
2024-01-17T08:00:32.895Z,29.5
2024-01-17T08:02:38.391Z,29.49
2024-01-17T08:04:43.781Z,29.55
2024-01-17T08:06:49.378Z,29.43
2024-01-17T08:08:54.865Z,29.45
2024-01-17T08:11:00.296Z,29.31
2024-01-17T08:13:05.659Z,29.31
2024-01-17T08:15:11.450Z,29.22
2024-01-17T08:17:16.823Z,29.26
2024-01-17T08:19:23.369Z,29.08
2024-01-17T08:21:29.163Z,29.08
2024-01-17T08:23:34.593Z,28.99
2024-01-17T08:25:40.154Z,29.03
2024-01-17T08:27:45.597Z,28.96
2024-01-17T08:29:51.260Z,28.97
2024-01-17T08:31:56.608Z,28.94
2024-01-17T08:34:02.896Z,28.95
2024-01-17T08:36:08.444Z,28.96
2024-01-17T08:38:14.151Z,28.94
2024-01-17T08:40:19.598Z,28.88
2024-01-17T08:42:24.913Z,28.88
2024-01-17T08:44:30.421Z,28.92
2024-01-17T08:46:35.782Z,28.74
2024-01-17T08:48:41.632Z,28.67
2024-01-17T08:50:47.022Z,28.49
2024-01-17T08:52:52.406Z,28.4
2024-01-17T08:54:57.687Z,28.36
2024-01-17T08:57:03.166Z,28.3
2024-01-17T08:59:08.634Z,28.23
2024-01-17T09:01:14.186Z,28.17
2024-01-17T09:03:19.800Z,28.08
2024-01-17T09:05:25.462Z,28.04
2024-01-17T09:07:35.518Z,27.89
2024-01-17T09:09:41.300Z,27.83
2024-01-17T09:11:46.858Z,27.9
2024-01-17T09:13:52.411Z,27.84
2024-01-17T09:15:57.736Z,27.84
2024-01-17T09:18:03.442Z,27.8
2024-01-17T09:20:09.291Z,27.77
2024-01-17T09:22:14.578Z,27.76
2024-01-17T09:24:19.924Z,27.63
2024-01-17T09:26:25.458Z,27.59
2024-01-17T09:28:30.781Z,27.62
2024-01-17T09:30:36.174Z,27.48
2024-01-17T09:32:42.444Z,27.7
2024-01-17T09:34:47.996Z,27.6
2024-01-17T09:36:53.983Z,27.26
2024-01-17T09:38:59.464Z,26.88
2024-01-17T09:41:04.873Z,26.81
2024-01-17T09:43:19.161Z,27
2024-01-17T09:45:25.036Z,27.03
2024-01-17T09:47:30.763Z,27.11
2024-01-17T09:49:36.422Z,27.13
2024-01-17T09:51:41.813Z,27.21
2024-01-17T09:53:47.178Z,27.15
2024-01-17T09:55:52.613Z,27.17
2024-01-17T09:57:58.083Z,27.17
2024-01-17T10:00:03.842Z,27.18
2024-01-17T10:02:09.317Z,27.12
2024-01-17T10:04:14.964Z,27.09
2024-01-17T10:06:21.111Z,27.1
2024-01-17T10:08:26.511Z,27.14
2024-01-17T10:10:31.856Z,27.1
2024-01-17T10:12:37.501Z,27.12
2024-01-17T10:14:42.919Z,27.08
2024-01-17T10:16:48.402Z,27.07
2024-01-17T10:18:54.007Z,26.99
2024-01-17T10:20:59.546Z,27.15
2024-01-17T10:23:04.915Z,27.14
2024-01-17T10:25:10.261Z,27.08
2024-01-17T10:27:15.813Z,26.77
2024-01-17T10:29:21.386Z,26.58
2024-01-17T10:31:27.042Z,26.47
2024-01-17T10:33:33.205Z,26.57
2024-01-17T10:35:39.231Z,26.65
2024-01-17T10:37:44.778Z,26.7
2024-01-17T10:39:50.341Z,26.8
2024-01-17T10:41:56.232Z,26.82
2024-01-17T10:44:01.625Z,26.72
2024-01-17T10:46:07.043Z,26.75
2024-01-17T10:48:13.066Z,26.72
2024-01-17T10:50:18.562Z,26.7
2024-01-17T10:52:29.719Z,26.66
2024-01-17T10:54:35.272Z,26.71
2024-01-17T10:56:40.693Z,26.66
2024-01-17T10:58:46.248Z,26.69
2024-01-17T11:00:51.889Z,26.76
2024-01-17T11:02:57.429Z,26.71
2024-01-17T11:05:03.092Z,26.74
2024-01-17T11:07:08.776Z,26.74
2024-01-17T11:09:14.584Z,26.88
2024-01-17T11:11:20.112Z,26.83
2024-01-17T11:13:25.356Z,26.77
2024-01-17T11:15:31.191Z,26.83
2024-01-17T11:17:39.798Z,26.93
2024-01-17T11:19:45.513Z,26.85
2024-01-17T11:21:51.213Z,26.78
2024-01-17T11:23:56.967Z,26.82
2024-01-17T11:26:02.857Z,26.83
2024-01-17T11:28:08.146Z,26.83
2024-01-17T11:30:13.706Z,26.77
2024-01-17T11:32:19.090Z,26.78
2024-01-17T11:34:25.173Z,26.73
2024-01-17T11:36:30.905Z,26.78
2024-01-17T11:38:36.894Z,26.76
2024-01-17T11:40:42.370Z,26.68
2024-01-17T11:42:47.955Z,26.65
2024-01-17T11:45:15.766Z,26.74
2024-01-17T11:47:21.447Z,26.81
2024-01-17T11:49:27.169Z,26.82
2024-01-17T11:51:32.772Z,26.82
2024-01-17T11:53:38.980Z,26.88
2024-01-17T11:55:44.717Z,26.99
2024-01-17T11:57:50.164Z,27.21
2024-01-17T11:59:55.475Z,27.36
2024-01-17T12:02:00.892Z,27.51
2024-01-17T12:04:06.425Z,27.89
2024-01-17T12:06:12.633Z,28.46
2024-01-17T12:08:18.458Z,28.64
2024-01-17T12:10:24.040Z,28.44
2024-01-17T12:12:29.531Z,28.29
2024-01-17T12:14:35.148Z,28.32
2024-01-17T12:16:40.605Z,28.24
2024-01-17T12:18:46.489Z,28.2
2024-01-17T12:20:52.017Z,28.2
2024-01-17T12:22:57.292Z,28.18
2024-01-17T12:25:02.778Z,28.16
2024-01-17T12:27:08.475Z,27.75
2024-01-17T12:29:14.160Z,27.76
2024-01-17T12:31:19.610Z,27.81
2024-01-17T12:33:29.064Z,27.75
2024-01-17T12:35:34.913Z,27.88
2024-01-17T12:37:40.430Z,27.9
2024-01-17T12:39:45.829Z,27.87
2024-01-17T12:41:51.447Z,27.86
2024-01-17T12:43:56.693Z,27.79
2024-01-17T12:46:02.156Z,27.64
2024-01-17T12:48:08.077Z,27.54
2024-01-17T12:50:13.580Z,27.51
2024-01-17T12:52:19.437Z,27.39
2024-01-17T12:54:25.552Z,27.16
2024-01-17T12:56:30.927Z,27.08
2024-01-17T12:58:36.202Z,27.14
2024-01-17T13:00:42.113Z,27.11
2024-01-17T13:02:47.735Z,27.1
2024-01-17T13:04:53.057Z,27.08
2024-01-17T13:06:58.563Z,27.02
2024-01-17T13:09:04.141Z,27.03
2024-01-17T13:11:09.513Z,27.02
2024-01-17T13:13:14.799Z,26.88
2024-01-17T13:15:20.606Z,26.8
2024-01-17T13:17:25.978Z,26.81
2024-01-17T13:19:31.790Z,26.91
2024-01-17T13:21:37.213Z,26.89
2024-01-17T13:23:42.935Z,26.82
2024-01-17T13:25:48.310Z,26.56
2024-01-17T13:27:53.844Z,26.58
2024-01-17T13:29:59.293Z,26.57
2024-01-17T13:32:04.835Z,26.56
2024-01-17T13:34:11.007Z,26.47
2024-01-17T13:36:16.738Z,26.64
2024-01-17T13:38:22.075Z,26.72
2024-01-17T13:40:27.426Z,27.05
2024-01-17T13:42:33.055Z,27.15
2024-01-17T13:44:38.452Z,27
2024-01-17T13:46:43.783Z,26.73
2024-01-17T13:48:51.532Z,26.81
2024-01-17T13:50:57.449Z,26.91
2024-01-17T13:53:03.019Z,27.08
2024-01-17T13:55:08.305Z,27.36
2024-01-17T13:57:13.758Z,27.53
2024-01-17T13:59:19.172Z,27.76
2024-01-17T14:01:24.613Z,27.75
2024-01-17T14:03:35.436Z,27.83
2024-01-17T14:05:41.146Z,28
2024-01-17T14:07:46.521Z,28.22
2024-01-17T14:09:52.069Z,29.47
2024-01-17T14:11:58.653Z,28.52
2024-01-17T14:14:04.366Z,28.58
2024-01-17T14:16:09.757Z,28.64
2024-01-17T14:18:15.325Z,29.35
2024-01-17T14:20:21.210Z,29.66
2024-01-17T14:22:26.656Z,30.01
2024-01-17T14:24:32.268Z,30.05
2024-01-17T14:26:40.569Z,30.6
2024-01-17T14:28:47.590Z,30.93
2024-01-17T14:30:53.232Z,30.79
2024-01-17T14:33:00.205Z,30.53
2024-01-17T14:35:07.074Z,30.45
2024-01-17T14:37:12.715Z,30.6
2024-01-17T14:39:18.379Z,30.42
2024-01-17T14:41:23.813Z,27.02
2024-01-17T14:43:33.317Z,29.48
2024-01-17T14:45:39.080Z,29.66
2024-01-17T14:47:44.791Z,29.77
2024-01-17T14:49:50.538Z,29.85
2024-01-17T14:51:56.130Z,29.77
2024-01-17T14:54:01.772Z,29.96
2024-01-17T14:56:07.218Z,29.85
2024-01-17T14:58:12.667Z,29.61
2024-01-17T15:00:18.320Z,29.51
2024-01-17T15:02:23.934Z,29.51
2024-01-17T15:04:29.330Z,29.6
2024-01-17T15:06:35.075Z,29.56
2024-01-17T15:08:40.603Z,29.54
2024-01-17T15:10:45.917Z,29.67
2024-01-17T15:12:51.191Z,29.54
2024-01-17T15:14:57.375Z,29.48
2024-01-17T15:17:04.162Z,29.61
2024-01-17T15:19:13.530Z,29.67
2024-01-17T15:21:19.067Z,29.97
2024-01-17T15:23:24.377Z,30.15
2024-01-17T15:25:29.701Z,30.29
2024-01-17T15:27:34.969Z,30.64
2024-01-17T15:29:40.712Z,30.8
2024-01-17T15:31:46.451Z,31.1
2024-01-17T15:33:51.993Z,31.36
2024-01-17T15:35:57.771Z,31.33
2024-01-17T15:38:03.198Z,31.91
2024-01-17T15:40:08.828Z,32.24
2024-01-17T15:42:14.339Z,32.39
2024-01-17T15:44:19.656Z,32.11
2024-01-17T15:46:25.169Z,32.02
2024-01-17T15:48:31.071Z,31.96
2024-01-17T15:50:40.657Z,31.61
2024-01-17T15:52:46.184Z,31.45
2024-01-17T15:54:51.624Z,31.24
2024-01-17T15:56:57.192Z,31.11
2024-01-17T15:59:02.712Z,30.98
2024-01-17T16:01:08.137Z,30.88
2024-01-17T16:03:13.727Z,30.77
2024-01-17T16:05:19.299Z,30.64
2024-01-17T16:07:25.322Z,30.52
2024-01-17T16:09:30.973Z,30.38
2024-01-17T16:11:36.366Z,30.3
2024-01-17T16:13:42.012Z,30.13
2024-01-17T16:15:47.462Z,29.97
2024-01-17T16:17:53.121Z,29.93
2024-01-17T16:19:58.736Z,29.84
2024-01-17T16:22:04.276Z,29.78
2024-01-17T16:24:09.814Z,29.71
2024-01-17T16:26:15.313Z,29.67
2024-01-17T16:28:20.799Z,29.59
2024-01-17T16:30:26.267Z,29.53
2024-01-17T16:32:31.992Z,29.5
2024-01-17T16:34:37.633Z,29.45
2024-01-17T16:36:43.197Z,29.42
2024-01-17T16:38:49.121Z,29.4
2024-01-17T16:40:54.608Z,29.39
2024-01-17T16:43:00.018Z,29.32
2024-01-17T16:45:05.709Z,29.47
2024-01-17T16:47:11.175Z,29.9
2024-01-17T16:49:17.209Z,30.38
2024-01-17T16:51:22.928Z,30.57
2024-01-17T16:53:28.288Z,30.5
2024-01-17T16:55:33.831Z,30.63
2024-01-17T16:57:39.350Z,30.66
2024-01-17T16:59:44.750Z,30.53
2024-01-17T17:01:50.200Z,30.47
2024-01-17T17:03:56.003Z,30.79
2024-01-17T17:06:01.830Z,31.25
2024-01-17T17:08:07.436Z,31.53
2024-01-17T17:10:12.907Z,31.46
2024-01-17T17:12:18.336Z,31.51
2024-01-17T17:14:23.821Z,31.51
2024-01-17T17:16:29.302Z,31.76
2024-01-17T17:18:35.190Z,31.54
2024-01-17T17:20:40.816Z,31.46
2024-01-17T17:22:46.225Z,31.54
2024-01-17T17:24:51.602Z,31.73
2024-01-17T17:26:57.437Z,31.63
2024-01-17T17:29:02.743Z,27.12
2024-01-17T17:31:08.135Z,27.12
2024-01-17T17:33:13.885Z,29.04
2024-01-17T17:35:19.367Z,30.84
2024-01-17T17:37:24.820Z,32.17
2024-01-17T17:39:30.226Z,32.89
2024-01-17T17:41:35.633Z,32.99
2024-01-17T17:43:41.031Z,33.4
2024-01-17T17:45:46.501Z,33.9
2024-01-17T17:47:52.393Z,34.14
2024-01-17T17:49:57.999Z,34.32
2024-01-17T17:52:03.221Z,33.93
2024-01-17T17:54:08.642Z,34.29
2024-01-17T17:56:13.881Z,33.63
2024-01-17T17:58:19.140Z,33.53
2024-01-17T18:00:24.877Z,33.11
2024-01-17T18:02:30.301Z,32.98
2024-01-17T18:04:35.693Z,32.9
2024-01-17T18:06:41.412Z,32.77
2024-01-17T18:08:49.699Z,32.64
2024-01-17T18:10:55.174Z,32.39
2024-01-17T18:13:00.490Z,32.27
2024-01-17T18:15:06.273Z,32.24
2024-01-17T18:17:11.736Z,32.14
2024-01-17T18:19:17.412Z,32.01
2024-01-17T18:21:22.987Z,32.03
2024-01-17T18:23:28.405Z,32.43
2024-01-17T18:25:38.500Z,32.6
2024-01-17T18:27:43.827Z,32.66
2024-01-17T18:29:49.435Z,32.92
2024-01-17T18:31:54.969Z,32.88
2024-01-17T18:34:00.334Z,33.12
2024-01-17T18:36:05.743Z,33.12
2024-01-17T18:38:11.195Z,32.89
2024-01-17T18:40:16.946Z,32.8
2024-01-17T18:42:22.702Z,32.72
2024-01-17T18:44:28.245Z,32.58
2024-01-17T18:46:33.537Z,32.46
2024-01-17T18:48:39.732Z,32.42
2024-01-17T18:50:45.203Z,32.27
2024-01-17T18:52:50.566Z,32.28
2024-01-17T18:54:55.794Z,32.26
2024-01-17T18:57:01.574Z,32.15
2024-01-17T18:59:07.048Z,31.97
2024-01-17T19:01:12.741Z,32.01
2024-01-17T19:03:18.348Z,31.89
2024-01-17T19:05:23.924Z,31.81
2024-01-17T19:07:29.118Z,31.59
2024-01-17T19:09:34.720Z,31.59
2024-01-17T19:11:40.196Z,31.63
2024-01-17T19:13:45.675Z,31.57
2024-01-17T19:15:51.201Z,31.38
2024-01-17T19:17:57.173Z,31.38
2024-01-17T19:20:03.718Z,31.25
2024-01-17T19:22:09.185Z,31.24
2024-01-17T19:24:14.540Z,31.06
2024-01-17T19:26:19.785Z,31.05
2024-01-17T19:28:25.253Z,30.85
2024-01-17T19:30:30.843Z,30.78
2024-01-17T19:32:36.554Z,30.8
2024-01-17T19:34:42.378Z,30.87
2024-01-17T19:36:47.953Z,30.85
2024-01-17T19:38:53.441Z,30.65
2024-01-17T19:40:58.648Z,30.71
2024-01-17T19:43:04.050Z,30.84
2024-01-17T19:45:09.642Z,31.03
2024-01-17T19:47:14.919Z,30.88
2024-01-17T19:49:36.285Z,30.84
2024-01-17T19:51:41.670Z,30.75
2024-01-17T19:53:47.324Z,30.61
2024-01-17T19:55:52.845Z,30.63
2024-01-17T19:57:58.439Z,30.45
2024-01-17T20:00:04.164Z,30.56
2024-01-17T20:02:09.736Z,30.56
2024-01-17T20:04:15.241Z,30.86
2024-01-17T20:06:20.781Z,30.94
2024-01-17T20:08:26.156Z,31.15
2024-01-17T20:10:31.779Z,31.33
2024-01-17T20:12:37.347Z,31.39
2024-01-17T20:14:42.956Z,31.39
2024-01-17T20:16:48.608Z,31.35
2024-01-17T20:18:54.444Z,31.33
2024-01-17T20:20:59.935Z,31.34
2024-01-17T20:23:05.383Z,31.37
2024-01-17T20:25:10.864Z,31.26
2024-01-17T20:27:16.588Z,31.23
2024-01-17T20:29:22.168Z,31.16
2024-01-17T20:31:27.608Z,31.1
2024-01-17T20:33:33.478Z,31.16
2024-01-17T20:35:39.095Z,31.14
2024-01-17T20:37:44.378Z,30.98
2024-01-17T20:39:49.981Z,31.08
2024-01-17T20:41:55.580Z,31.15
2024-01-17T20:44:00.966Z,31.15
2024-01-17T20:46:06.607Z,30.61
2024-01-17T20:48:12.524Z,30.56
2024-01-17T20:50:17.930Z,30.6
2024-01-17T20:52:23.405Z,30.65
2024-01-17T20:54:29.123Z,30.79
2024-01-17T20:56:34.622Z,30.6
2024-01-17T20:58:39.909Z,30.72
2024-01-17T21:00:45.596Z,30.74
2024-01-17T21:02:51.366Z,30.86
2024-01-17T21:04:57.062Z,30.97
2024-01-17T21:07:02.634Z,31.16
2024-01-17T21:09:08.251Z,31.23
2024-01-17T21:11:13.627Z,31.28
2024-01-17T21:13:19.038Z,31.48
2024-01-17T21:15:24.523Z,31.59
2024-01-17T21:17:30.074Z,31.73
2024-01-17T21:19:35.687Z,31.88
2024-01-17T21:21:41.140Z,31.94
2024-01-17T21:23:46.633Z,31.99
2024-01-17T21:25:52.225Z,32.06
2024-01-17T21:27:57.602Z,32.08
2024-01-17T21:30:03.332Z,32.15
2024-01-17T21:32:08.798Z,32.25
2024-01-17T21:34:14.895Z,32.24
2024-01-17T21:36:20.549Z,32.19
2024-01-17T21:38:25.920Z,32.2
2024-01-17T21:40:31.204Z,32.17
2024-01-17T21:42:36.890Z,32.14
2024-01-17T21:44:42.498Z,32.15
2024-01-17T21:46:47.951Z,32.15
2024-01-17T21:48:54.032Z,32.2
2024-01-17T21:50:59.633Z,32.21
2024-01-17T21:53:05.134Z,32.28
2024-01-17T21:55:14.241Z,32.37
2024-01-17T21:57:19.691Z,32.52
2024-01-17T21:59:25.299Z,32.56
2024-01-17T22:01:31.073Z,32.71
2024-01-17T22:03:36.747Z,32.76
2024-01-17T22:05:42.722Z,32.9
2024-01-17T22:07:48.011Z,33.01
2024-01-17T22:09:56.844Z,33.08
2024-01-17T22:12:04.020Z,33.25
2024-01-17T22:14:09.503Z,33.29
2024-01-17T22:16:14.894Z,33.29
2024-01-17T22:18:20.632Z,33.5
2024-01-17T22:20:25.958Z,33.5
2024-01-17T22:22:31.442Z,33.71
2024-01-17T22:24:37.129Z,34.02
2024-01-17T22:26:42.435Z,34.05
2024-01-17T22:28:47.828Z,34.13
2024-01-17T22:30:53.546Z,34.27
2024-01-17T22:32:59.405Z,34.38
2024-01-17T22:35:04.932Z,34.46
2024-01-17T22:37:10.394Z,34.56
2024-01-17T22:39:16.093Z,34.61
2024-01-17T22:41:21.489Z,34.63
2024-01-17T22:43:26.975Z,34.52
2024-01-17T22:45:32.619Z,34.67
2024-01-17T22:47:38.112Z,34.58
2024-01-17T22:49:43.647Z,34.62
2024-01-17T22:51:49.279Z,34.5
2024-01-17T22:53:54.704Z,34.42
2024-01-17T22:56:00.185Z,34.56
2024-01-17T22:58:05.596Z,34.53
2024-01-17T23:00:11.012Z,34.74
2024-01-17T23:02:16.453Z,34.77
2024-01-17T23:04:22.035Z,34.74
2024-01-17T23:06:28.194Z,34.82
2024-01-17T23:08:33.677Z,34.83
2024-01-17T23:10:39.072Z,34.75
2024-01-17T23:12:44.338Z,34.68
2024-01-17T23:14:49.789Z,34.69
2024-01-17T23:16:55.284Z,34.64
2024-01-17T23:19:01.242Z,34.68
2024-01-17T23:21:06.786Z,34.7
2024-01-17T23:23:12.013Z,34.67
2024-01-17T23:25:17.345Z,34.75
2024-01-17T23:27:22.848Z,34.73
2024-01-17T23:29:28.087Z,34.87
2024-01-17T23:31:33.665Z,34.86
2024-01-17T23:33:39.613Z,34.79
2024-01-17T23:35:45.164Z,34.84
2024-01-17T23:37:50.450Z,35.08
2024-01-17T23:39:55.961Z,35.29
2024-01-17T23:42:01.320Z,35.3
2024-01-17T23:44:06.818Z,35.18
2024-01-17T23:46:12.201Z,35.19
2024-01-17T23:48:17.940Z,35.32
2024-01-17T23:50:23.504Z,35.32
2024-01-17T23:52:28.885Z,35.21
2024-01-17T23:54:34.712Z,35.21
2024-01-17T23:56:40.290Z,35.21
2024-01-17T23:58:45.895Z,35.2
